createdAt,value
2023-01-28T00:02:15.384Z,61.25
2023-01-28T00:04:43.700Z,37.50
2023-01-28T00:07:12.046Z,39.75
2023-01-28T00:09:40.532Z,35.75
2023-01-28T00:12:10.050Z,49.25
2023-01-28T00:14:38.474Z,35.75
2023-01-28T00:17:07.114Z,54.50
2023-01-28T00:19:36.850Z,53.00
2023-01-28T00:22:05.704Z,56.75
2023-01-28T00:24:34.016Z,49.00
2023-01-28T00:27:02.312Z,47.00
2023-01-28T00:29:30.649Z,56.00
2023-01-28T00:31:59.011Z,48.75
2023-01-28T00:34:30.951Z,53.25
2023-01-28T00:37:00.641Z,50.75
2023-01-28T00:39:29.026Z,39.25
2023-01-28T00:41:57.471Z,48.50
2023-01-28T00:44:26.234Z,26.50
2023-01-28T00:46:54.785Z,57.75
2023-01-28T00:49:24.043Z,26.25
2023-01-28T00:51:52.367Z,44.50
2023-01-28T00:54:22.553Z,45.00
2023-01-28T00:56:50.873Z,32.25
2023-01-28T00:59:19.265Z,46.75
2023-01-28T01:01:49.033Z,52.50
2023-01-28T01:04:26.886Z,54.75
2023-01-28T01:06:55.551Z,37.50
2023-01-28T01:09:25.342Z,48.75
2023-01-28T01:11:53.769Z,40.50
2023-01-28T01:14:22.084Z,57.00
2023-01-28T01:16:50.563Z,37.00
2023-01-28T01:19:20.790Z,46.75
2023-01-28T01:21:50.984Z,42.50
2023-01-28T01:24:19.596Z,48.25
2023-01-28T01:26:49.771Z,39.75
2023-01-28T01:29:18.266Z,60.50
2023-01-28T01:31:46.607Z,41.25
2023-01-28T01:34:15.844Z,28.00
2023-01-28T01:36:44.960Z,53.25
2023-01-28T01:39:14.252Z,45.75
2023-01-28T01:41:42.909Z,40.25
2023-01-28T01:44:44.358Z,53.75
2023-01-28T01:47:15.213Z,49.50
2023-01-28T01:49:43.962Z,50.00
2023-01-28T01:52:15.668Z,59.00
2023-01-28T01:54:48.310Z,47.25
2023-01-28T01:57:22.695Z,46.25
2023-01-28T01:59:52.151Z,52.00
2023-01-28T02:02:22.083Z,55.25
2023-01-28T02:04:50.439Z,66.75
2023-01-28T02:07:21.030Z,45.75
2023-01-28T02:09:49.442Z,62.50
2023-01-28T02:12:23.028Z,47.50
2023-01-28T02:14:55.776Z,53.00
2023-01-28T02:17:26.637Z,45.25
2023-01-28T02:19:59.209Z,53.25
2023-01-28T02:23:01.788Z,65.50
2023-01-28T02:26:08.576Z,63.50
2023-01-28T02:28:46.600Z,49.50
2023-01-28T02:31:23.695Z,55.50
2023-01-28T02:34:00.795Z,44.75
2023-01-28T02:36:37.660Z,74.75
2023-01-28T02:39:14.566Z,49.00
2023-01-28T02:41:50.334Z,46.00
2023-01-28T02:44:20.328Z,38.50
2023-01-28T02:47:06.365Z,41.00
2023-01-28T02:49:40.454Z,39.50
2023-01-28T02:52:42.557Z,45.25
2023-01-28T02:55:19.213Z,50.25
2023-01-28T02:58:00.340Z,45.50
2023-01-28T03:00:42.456Z,54.00
2023-01-28T03:03:18.148Z,46.50
2023-01-28T03:06:05.314Z,35.50
2023-01-28T03:08:57.357Z,57.75
2023-01-28T03:11:45.884Z,44.75
2023-01-28T03:14:32.262Z,52.50
2023-01-28T03:17:26.553Z,47.00
2023-01-28T03:20:13.417Z,36.75
2023-01-28T03:23:07.489Z,49.50
2023-01-28T03:25:59.303Z,42.75
2023-01-28T03:28:47.452Z,53.75
2023-01-28T03:31:37.493Z,24.75
2023-01-28T03:34:26.794Z,46.00
2023-01-28T03:36:56.399Z,51.50
2023-01-28T03:39:47.289Z,40.75
2023-01-28T03:42:18.652Z,32.00
2023-01-28T03:44:57.377Z,45.50
2023-01-28T03:47:27.510Z,37.75
2023-01-28T03:49:59.787Z,50.25
2023-01-28T03:52:32.131Z,42.00
2023-01-28T03:55:19.355Z,51.75
2023-01-28T03:57:48.926Z,56.00
2023-01-28T04:00:20.302Z,45.25
2023-01-28T04:02:48.927Z,56.75
2023-01-28T04:05:20.884Z,40.50
2023-01-28T04:07:51.840Z,46.00
2023-01-28T04:10:46.086Z,46.50
2023-01-28T04:13:21.854Z,39.00
2023-01-28T04:15:50.573Z,46.25
2023-01-28T04:18:19.944Z,50.25
2023-01-28T04:20:52.864Z,53.00
2023-01-28T04:23:21.266Z,65.25
2023-01-28T04:25:51.692Z,29.50
2023-01-28T04:28:21.211Z,48.50
2023-01-28T04:30:50.091Z,48.00
2023-01-28T04:33:45.147Z,45.50
2023-01-28T04:36:35.149Z,48.00
2023-01-28T04:39:22.240Z,54.00
2023-01-28T04:42:16.234Z,44.25
2023-01-28T04:45:02.370Z,53.25
2023-01-28T04:47:57.014Z,49.25
2023-01-28T04:50:46.990Z,47.25
2023-01-28T04:53:38.570Z,32.75
2023-01-28T04:56:25.212Z,48.75
2023-01-28T04:58:53.507Z,36.00
2023-01-28T05:01:21.887Z,46.50
2023-01-28T05:03:50.182Z,41.50
2023-01-28T05:06:27.559Z,40.25
2023-01-28T05:08:59.689Z,52.75
2023-01-28T05:11:28.904Z,38.75
2023-01-28T05:14:01.095Z,70.00
2023-01-28T05:16:35.207Z,44.75
2023-01-28T05:19:04.930Z,50.00
2023-01-28T05:21:42.986Z,51.25
2023-01-28T05:24:37.510Z,28.25
2023-01-28T05:27:07.262Z,34.75
2023-01-28T05:29:35.615Z,22.25
2023-01-28T05:32:04.105Z,24.50
2023-01-28T05:34:33.161Z,45.25
2023-01-28T05:37:06.587Z,61.25
2023-01-28T05:39:39.719Z,61.00
2023-01-28T05:42:08.156Z,36.00
2023-01-28T05:44:41.355Z,42.50
2023-01-28T05:47:17.011Z,48.75
2023-01-28T05:49:54.247Z,45.00
2023-01-28T05:52:28.400Z,40.75
2023-01-28T05:54:59.529Z,45.75
2023-01-28T05:57:27.874Z,40.00
2023-01-28T05:59:56.173Z,46.25
2023-01-28T06:02:24.604Z,43.75
2023-01-28T06:04:56.249Z,34.50
2023-01-28T06:07:25.210Z,60.75
2023-01-28T06:09:53.533Z,25.25
2023-01-28T06:12:24.665Z,42.00
2023-01-28T06:15:15.612Z,37.50
2023-01-28T06:18:04.501Z,47.00
2023-01-28T06:20:35.392Z,41.00
2023-01-28T06:23:03.786Z,43.50
2023-01-28T06:25:32.102Z,35.00
2023-01-28T06:28:06.882Z,34.50
2023-01-28T06:30:35.333Z,42.50
2023-01-28T06:33:03.709Z,48.50
2023-01-28T06:35:32.033Z,47.25
2023-01-28T06:38:00.298Z,45.25
2023-01-28T06:40:28.666Z,43.25
2023-01-28T06:42:57.019Z,41.75
2023-01-28T06:45:26.699Z,49.75
2023-01-28T06:47:55.014Z,42.75
2023-01-28T06:50:23.362Z,44.00
2023-01-28T06:52:51.647Z,53.50
2023-01-28T06:55:19.995Z,46.50
2023-01-28T06:57:48.292Z,52.50
2023-01-28T07:00:17.645Z,48.75
2023-01-28T07:02:47.628Z,45.50
2023-01-28T07:05:16.083Z,38.00
2023-01-28T07:07:45.649Z,51.25
2023-01-28T07:10:14.365Z,53.50
2023-01-28T07:12:45.153Z,46.75
2023-01-28T07:15:15.331Z,38.00
2023-01-28T07:17:43.844Z,58.75
2023-01-28T07:20:16.584Z,41.00
2023-01-28T07:22:45.913Z,64.50
2023-01-28T07:25:15.416Z,56.25
2023-01-28T07:27:48.471Z,63.75
2023-01-28T07:30:18.441Z,48.50
2023-01-28T07:32:47.601Z,36.50
2023-01-28T07:35:17.415Z,64.25
2023-01-28T07:37:52.983Z,43.00
2023-01-28T07:40:22.420Z,49.25
2023-01-28T07:42:50.791Z,55.75
2023-01-28T07:45:23.859Z,60.00
2023-01-28T07:47:56.913Z,51.00
2023-01-28T07:50:27.132Z,46.75
2023-01-28T07:52:55.690Z,57.50
2023-01-28T07:55:24.125Z,44.50
2023-01-28T07:57:53.982Z,57.25
2023-01-28T08:00:23.502Z,43.75
2023-01-28T08:02:56.335Z,53.25
2023-01-28T08:05:27.393Z,39.00
2023-01-28T08:07:55.883Z,48.75
2023-01-28T08:10:24.268Z,53.00
2023-01-28T08:12:53.705Z,54.00
2023-01-28T08:15:22.633Z,66.25
2023-01-28T08:17:50.993Z,52.25
2023-01-28T08:20:19.417Z,40.25
2023-01-28T08:22:49.285Z,43.50
2023-01-28T08:25:17.862Z,36.25
2023-01-28T08:27:46.126Z,38.25
2023-01-28T08:30:15.319Z,51.50
2023-01-28T08:32:43.890Z,44.50
2023-01-28T08:35:12.479Z,53.25
2023-01-28T08:37:40.792Z,38.25
2023-01-28T08:40:12.286Z,51.00
2023-01-28T08:42:40.631Z,48.50
2023-01-28T08:45:10.207Z,57.75
2023-01-28T08:47:38.491Z,41.25
2023-01-28T08:50:07.840Z,51.00
2023-01-28T08:52:36.155Z,53.00
2023-01-28T08:55:04.640Z,45.25
2023-01-28T08:57:34.673Z,53.50
2023-01-28T09:00:02.965Z,52.50
2023-01-28T09:02:32.406Z,47.50
2023-01-28T09:05:01.138Z,54.00
2023-01-28T09:07:29.599Z,53.00
2023-01-28T09:09:58.038Z,48.50
2023-01-28T09:12:27.245Z,37.75
2023-01-28T09:14:57.076Z,43.25
2023-01-28T09:17:25.648Z,54.25
2023-01-28T09:19:54.082Z,42.50
2023-01-28T09:22:22.462Z,41.25
2023-01-28T09:24:50.874Z,53.75
2023-01-28T09:27:19.387Z,44.00
2023-01-28T09:29:47.734Z,55.50
2023-01-28T09:32:17.479Z,41.00
2023-01-28T09:34:45.851Z,58.50
2023-01-28T09:37:14.800Z,46.25
2023-01-28T09:39:44.172Z,50.75
2023-01-28T09:42:44.001Z,49.50
2023-01-28T09:45:18.421Z,39.75
2023-01-28T09:47:52.963Z,47.75
2023-01-28T09:50:27.936Z,53.75
2023-01-28T09:53:03.787Z,48.25
2023-01-28T09:55:35.868Z,59.75
2023-01-28T09:58:10.060Z,49.00
2023-01-28T10:00:46.984Z,45.00
2023-01-28T10:03:38.221Z,38.50
2023-01-28T10:06:18.070Z,44.25
2023-01-28T10:09:04.162Z,55.50
2023-01-28T10:11:48.746Z,41.00
2023-01-28T10:14:25.579Z,50.50
2023-01-28T10:17:01.673Z,43.25
2023-01-28T10:19:34.826Z,44.75
2023-01-28T10:22:06.846Z,31.75
2023-01-28T10:24:37.339Z,52.75
2023-01-28T10:27:13.639Z,48.75
2023-01-28T10:29:46.090Z,45.75
2023-01-28T10:32:23.929Z,32.75
2023-01-28T10:34:54.527Z,36.25
2023-01-28T10:37:23.334Z,31.50
2023-01-28T10:39:54.283Z,46.75
2023-01-28T10:42:29.294Z,44.25
2023-01-28T10:45:02.665Z,51.00
2023-01-28T10:47:36.635Z,45.25
2023-01-28T10:50:07.663Z,37.00
2023-01-28T10:52:35.905Z,28.50
2023-01-28T10:55:07.033Z,44.50
2023-01-28T10:57:36.483Z,52.25
2023-01-28T11:00:14.308Z,32.00
2023-01-28T11:02:43.458Z,40.75
2023-01-28T11:05:21.093Z,37.75
2023-01-28T11:07:50.375Z,30.25
2023-01-28T11:10:28.125Z,45.75
2023-01-28T11:12:57.900Z,36.25
2023-01-28T11:15:26.889Z,45.00
2023-01-28T11:18:00.276Z,34.75
2023-01-28T11:20:36.570Z,60.50
2023-01-28T11:23:07.880Z,63.00
2023-01-28T11:25:38.698Z,47.50
2023-01-28T11:28:17.250Z,36.00
2023-01-28T11:30:51.394Z,50.75
2023-01-28T11:33:23.716Z,30.75
2023-01-28T11:35:58.353Z,36.00
2023-01-28T11:38:27.990Z,46.50
2023-01-28T11:40:57.843Z,79.25
2023-01-28T11:43:28.130Z,78.75
2023-01-28T11:46:10.032Z,74.25
2023-01-28T11:48:51.439Z,72.50
2023-01-28T11:51:36.481Z,72.00
2023-01-28T11:54:19.004Z,79.25
2023-01-28T11:57:01.057Z,21.75
2023-01-28T11:59:55.255Z,49.00
2023-01-28T12:02:44.918Z,64.00
2023-01-28T12:05:31.198Z,78.50
2023-01-28T12:08:10.663Z,46.75
2023-01-28T12:10:49.639Z,33.00
2023-01-28T12:13:30.919Z,72.75
2023-01-28T12:16:24.692Z,38.50
2023-01-28T12:19:17.043Z,61.25
2023-01-28T12:22:03.091Z,75.00
2023-01-28T12:24:44.712Z,68.00
2023-01-28T12:27:27.498Z,61.25
2023-01-28T12:30:05.827Z,79.75
2023-01-28T12:32:50.533Z,62.50
2023-01-28T12:35:53.468Z,59.00
2023-01-28T12:38:34.090Z,18.00
2023-01-28T12:41:10.414Z,71.00
2023-01-28T12:43:47.949Z,58.25
2023-01-28T12:46:39.847Z,56.25
2023-01-28T12:49:12.068Z,68.00
2023-01-28T12:51:51.377Z,59.25
2023-01-28T12:54:25.482Z,75.25
2023-01-28T12:56:56.351Z,63.25
2023-01-28T12:59:30.602Z,63.25
2023-01-28T13:02:07.900Z,92.75
2023-01-28T13:04:43.818Z,102.50
2023-01-28T13:07:16.910Z,78.00
2023-01-28T13:09:51.263Z,86.25
2023-01-28T13:12:22.785Z,72.75
2023-01-28T13:14:54.246Z,64.75
2023-01-28T13:17:30.484Z,25.25
2023-01-28T13:19:59.730Z,60.25
2023-01-28T13:22:31.804Z,57.00
2023-01-28T13:25:20.079Z,49.50
2023-01-28T13:27:59.206Z,46.75
2023-01-28T13:30:29.931Z,60.00
2023-01-28T13:33:01.044Z,39.25
2023-01-28T13:35:35.572Z,33.75
2023-01-28T13:38:17.365Z,38.75
2023-01-28T13:40:55.714Z,59.25
2023-01-28T13:43:38.714Z,68.75
2023-01-28T13:46:09.241Z,89.75
2023-01-28T13:48:44.191Z,75.75
2023-01-28T13:51:20.806Z,95.50
2023-01-28T13:53:56.086Z,112.50
2023-01-28T13:56:28.459Z,145.75
2023-01-28T13:59:38.623Z,103.75
2023-01-28T14:02:42.235Z,78.50
2023-01-28T14:05:49.195Z,78.50
2023-01-28T14:08:50.475Z,79.00
2023-01-28T14:11:54.891Z,21.50
2023-01-28T14:14:49.876Z,67.75
2023-01-28T14:17:27.919Z,84.25
2023-01-28T14:19:58.708Z,96.50
2023-01-28T14:22:27.943Z,71.75
2023-01-28T14:25:00.637Z,53.25
2023-01-28T14:27:36.297Z,82.00
2023-01-28T14:30:15.815Z,36.50
2023-01-28T14:32:49.112Z,77.75
2023-01-28T14:35:21.652Z,78.00
2023-01-28T14:37:50.195Z,82.50
2023-01-28T14:40:19.037Z,67.75
2023-01-28T14:42:51.847Z,76.00
2023-01-28T14:45:55.211Z,72.00
2023-01-28T14:48:26.764Z,75.00
2023-01-28T14:51:18.127Z,59.75
2023-01-28T14:54:05.576Z,69.75
2023-01-28T14:56:47.280Z,75.25
2023-01-28T14:59:20.173Z,73.50
2023-01-28T15:01:51.010Z,69.00
2023-01-28T15:04:25.668Z,72.00
2023-01-28T15:06:54.156Z,73.75
2023-01-28T15:09:24.226Z,87.25
2023-01-28T15:11:57.927Z,44.50
2023-01-28T15:14:31.531Z,70.25
2023-01-28T15:17:02.786Z,63.75
2023-01-28T15:19:33.973Z,52.50
2023-01-28T15:22:05.553Z,69.00
2023-01-28T15:24:36.735Z,67.00
2023-01-28T15:27:05.316Z,78.75
2023-01-28T15:29:35.410Z,64.50
2023-01-28T15:32:06.735Z,74.50
2023-01-28T15:34:35.086Z,79.25
2023-01-28T15:37:03.670Z,73.25
2023-01-28T15:39:31.981Z,56.50
2023-01-28T15:42:03.671Z,48.25
2023-01-28T15:44:36.203Z,68.75
2023-01-28T15:47:17.347Z,64.25
2023-01-28T15:49:49.925Z,63.75
2023-01-28T15:52:18.614Z,46.75
2023-01-28T15:54:52.627Z,72.50
2023-01-28T15:57:22.251Z,70.75
2023-01-28T15:59:51.413Z,88.00
2023-01-28T16:02:22.701Z,66.75
2023-01-28T16:05:01.984Z,73.00
2023-01-28T16:07:33.502Z,74.00
2023-01-28T16:10:04.872Z,57.50
2023-01-28T16:12:33.125Z,43.75
2023-01-28T16:15:04.256Z,89.25
2023-01-28T16:17:42.714Z,80.00
2023-01-28T16:20:23.208Z,84.25
2023-01-28T16:22:52.434Z,209.75
2023-01-28T16:25:30.576Z,187.25
2023-01-28T16:27:59.839Z,114.75
2023-01-28T16:30:29.014Z,95.50
2023-01-28T16:32:58.703Z,115.25
2023-01-28T16:35:47.122Z,99.25
2023-01-28T16:38:19.105Z,74.00
2023-01-28T16:40:48.565Z,84.50
2023-01-28T16:43:17.744Z,81.50
2023-01-28T16:45:47.199Z,91.50
2023-01-28T16:48:17.172Z,75.00
2023-01-28T16:50:45.708Z,80.25
2023-01-28T16:53:21.826Z,70.00
2023-01-28T16:55:52.121Z,52.25
2023-01-28T16:58:25.252Z,66.00
2023-01-28T17:00:53.662Z,72.75
2023-01-28T17:03:23.762Z,73.25
2023-01-28T17:05:52.113Z,81.75
2023-01-28T17:08:20.460Z,81.50
2023-01-28T17:10:53.809Z,81.00
2023-01-28T17:13:22.746Z,75.00
2023-01-28T17:15:51.200Z,71.50
2023-01-28T17:18:19.590Z,53.25
2023-01-28T17:20:49.352Z,68.75
2023-01-28T17:23:22.914Z,66.50
2023-01-28T17:25:51.436Z,70.75
2023-01-28T17:28:19.786Z,80.50
2023-01-28T17:30:48.265Z,75.00
2023-01-28T17:33:16.639Z,74.50
2023-01-28T17:35:49.212Z,62.50
2023-01-28T17:38:18.159Z,76.25
2023-01-28T17:40:46.461Z,69.00
2023-01-28T17:43:14.858Z,83.25
2023-01-28T17:45:44.336Z,141.25
2023-01-28T17:48:12.872Z,75.25
2023-01-28T17:50:41.927Z,97.00
2023-01-28T17:53:12.396Z,101.00
2023-01-28T17:55:40.968Z,114.50
2023-01-28T17:58:09.218Z,99.25
2023-01-28T18:00:37.504Z,93.50
2023-01-28T18:03:05.850Z,72.50
2023-01-28T18:05:34.421Z,78.75
2023-01-28T18:08:02.781Z,76.00
2023-01-28T18:10:32.621Z,68.75
2023-01-28T18:13:02.126Z,75.25
2023-01-28T18:15:30.514Z,75.50
2023-01-28T18:17:58.763Z,72.75
2023-01-28T18:20:27.168Z,68.75
2023-01-28T18:22:55.436Z,55.50
2023-01-28T18:25:24.194Z,58.75
2023-01-28T18:27:54.303Z,47.50
2023-01-28T18:30:22.745Z,60.00
2023-01-28T18:32:51.134Z,49.75
2023-01-28T18:35:19.760Z,39.25
2023-01-28T18:37:48.078Z,43.75
2023-01-28T18:40:16.720Z,55.50
2023-01-28T18:42:44.983Z,62.50
2023-01-28T18:45:15.007Z,51.75
2023-01-28T18:47:43.759Z,66.25
2023-01-28T18:50:12.303Z,70.75
2023-01-28T18:52:40.632Z,54.00
2023-01-28T18:55:10.300Z,71.25
2023-01-28T18:57:38.754Z,44.50
2023-01-28T19:00:08.471Z,45.25
2023-01-28T19:02:38.184Z,40.00
2023-01-28T19:05:07.071Z,48.75
2023-01-28T19:07:35.380Z,42.25
2023-01-28T19:10:03.768Z,44.25
2023-01-28T19:12:32.223Z,41.25
2023-01-28T19:15:00.547Z,48.25
2023-01-28T19:17:28.861Z,47.00
2023-01-28T19:19:58.626Z,39.00
2023-01-28T19:22:27.047Z,27.50
2023-01-28T19:24:55.404Z,43.75
2023-01-28T19:27:23.738Z,31.00
2023-01-28T19:29:52.067Z,35.00
2023-01-28T19:32:20.362Z,36.25
2023-01-28T19:34:48.807Z,69.50
2023-01-28T19:37:18.487Z,26.00
2023-01-28T19:39:46.872Z,34.50
2023-01-28T19:42:15.546Z,42.75
2023-01-28T19:44:43.871Z,41.50
2023-01-28T19:47:12.172Z,46.50
2023-01-28T19:49:40.575Z,40.25
2023-01-28T19:52:10.941Z,25.75
2023-01-28T19:54:40.678Z,30.50
2023-01-28T19:57:09.044Z,25.50
2023-01-28T19:59:37.328Z,29.75
2023-01-28T20:02:05.797Z,15.75
2023-01-28T20:04:34.253Z,27.00
2023-01-28T20:07:02.762Z,19.50
2023-01-28T20:09:31.168Z,26.50
2023-01-28T20:12:00.850Z,20.00
2023-01-28T20:14:29.300Z,29.25
2023-01-28T20:16:57.677Z,26.75
2023-01-28T20:19:25.961Z,19.25
2023-01-28T20:21:54.343Z,26.00
2023-01-28T20:24:23.082Z,20.00
2023-01-28T20:26:51.517Z,66.00
2023-01-28T20:29:22.543Z,27.75
2023-01-28T20:32:05.154Z,92.50
2023-01-28T20:34:39.407Z,60.75
2023-01-28T20:37:10.193Z,35.75
2023-01-28T20:39:38.568Z,47.25
2023-01-28T20:42:09.447Z,22.00
2023-01-28T20:44:39.229Z,48.75
2023-01-28T20:47:07.790Z,31.00
2023-01-28T20:49:36.099Z,33.75
2023-01-28T20:52:04.511Z,37.25
2023-01-28T20:54:32.876Z,16.75
2023-01-28T20:57:01.264Z,23.25
2023-01-28T20:59:31.292Z,13.50
2023-01-28T21:02:03.745Z,21.25
2023-01-28T21:04:32.125Z,40.00
2023-01-28T21:07:00.392Z,44.25
2023-01-28T21:09:28.826Z,15.75
2023-01-28T21:11:57.163Z,10.75
2023-01-28T21:14:25.722Z,13.75
2023-01-28T21:16:54.382Z,6.75
2023-01-28T21:19:24.570Z,10.00
2023-01-28T21:21:52.956Z,8.50
2023-01-28T21:24:23.402Z,12.50
2023-01-28T21:26:51.805Z,12.75
2023-01-28T21:29:20.084Z,21.25
2023-01-28T21:31:48.474Z,19.50
2023-01-28T21:34:16.946Z,18.00
2023-01-28T21:36:46.733Z,10.00
2023-01-28T21:39:15.117Z,18.25
2023-01-28T21:41:43.368Z,12.25
2023-01-28T21:44:13.194Z,16.50
2023-01-28T21:46:41.629Z,15.00
2023-01-28T21:49:12.224Z,18.25
2023-01-28T21:51:45.816Z,12.25
2023-01-28T21:54:17.431Z,19.50
2023-01-28T21:56:46.398Z,28.00
2023-01-28T21:59:30.762Z,13.25
2023-01-28T22:02:00.663Z,17.00
2023-01-28T22:04:33.090Z,21.25
2023-01-28T22:07:02.230Z,14.50
2023-01-28T22:09:33.812Z,11.25
2023-01-28T22:12:05.179Z,12.25
2023-01-28T22:14:33.723Z,9.75
2023-01-28T22:17:02.570Z,19.00
2023-01-28T22:19:30.901Z,24.50
2023-01-28T22:21:59.208Z,16.50
2023-01-28T22:24:28.192Z,19.75
2023-01-28T22:26:58.289Z,9.25
2023-01-28T22:29:26.703Z,19.75
2023-01-28T22:31:55.794Z,12.50
2023-01-28T22:34:24.621Z,12.25
2023-01-28T22:36:53.598Z,23.00
2023-01-28T22:39:21.924Z,10.00
2023-01-28T22:41:50.333Z,11.50
2023-01-28T22:44:21.090Z,8.00
2023-01-28T22:46:49.489Z,8.00
2023-01-28T22:49:17.850Z,5.00
2023-01-28T22:51:46.171Z,8.50
2023-01-28T22:54:15.422Z,6.50
2023-01-28T22:56:43.915Z,7.00
2023-01-28T22:59:12.859Z,6.00
2023-01-28T23:01:42.570Z,9.00
2023-01-28T23:04:10.957Z,8.00
2023-01-28T23:06:39.487Z,7.00
2023-01-28T23:09:07.919Z,5.50
2023-01-28T23:11:36.280Z,4.50
2023-01-28T23:14:22.895Z,7.50
2023-01-28T23:17:09.893Z,8.50
2023-01-28T23:19:55.356Z,13.00
2023-01-28T23:22:45.371Z,8.50
2023-01-28T23:25:13.788Z,9.50
2023-01-28T23:27:42.290Z,9.75
2023-01-28T23:30:12.400Z,13.50
2023-01-28T23:32:45.108Z,22.00
2023-01-28T23:35:13.689Z,3.25
2023-01-28T23:37:42.577Z,9.50
2023-01-28T23:40:12.484Z,16.50
2023-01-28T23:42:41.885Z,19.25
2023-01-28T23:45:11.746Z,37.50
2023-01-28T23:47:41.572Z,19.00
2023-01-28T23:50:11.303Z,21.25
2023-01-28T23:52:39.622Z,10.25
2023-01-28T23:55:08.933Z,29.50
2023-01-28T23:57:37.716Z,10.00
